createdAt,value
2019-05-22T00:00:48.951Z,1009.28
2019-05-22T00:01:41.246Z,1009.3
2019-05-22T00:02:07.384Z,1009.32
2019-05-22T00:02:59.688Z,1009.3
2019-05-22T00:04:18.227Z,1009.3
2019-05-22T00:05:10.609Z,1009.3
2019-05-22T00:05:36.771Z,1009.32
2019-05-22T00:06:29.058Z,1009.35
2019-05-22T00:07:21.419Z,1009.36
2019-05-22T00:07:47.557Z,1009.35
2019-05-22T00:08:39.845Z,1009.41
2019-05-22T00:09:58.315Z,1009.4
2019-05-22T00:10:50.655Z,1009.39
2019-05-22T00:11:16.820Z,1009.41
2019-05-22T00:12:09.137Z,1009.44
2019-05-22T00:13:29.572Z,1009.47
2019-05-22T00:14:48.031Z,1009.45
2019-05-22T00:15:41.160Z,1009.43
2019-05-22T00:16:07.300Z,1009.47
2019-05-22T00:16:59.723Z,1009.46
2019-05-22T00:18:18.188Z,1009.51
2019-05-22T00:19:10.530Z,1009.54
2019-05-22T00:19:36.701Z,1009.54
2019-05-22T00:20:29.023Z,1009.53
2019-05-22T00:21:21.312Z,1009.53
2019-05-22T00:21:47.477Z,1009.54
2019-05-22T00:22:39.774Z,1009.5
2019-05-22T00:23:58.266Z,1009.53
2019-05-22T00:24:50.596Z,1009.54
2019-05-22T00:25:16.727Z,1009.55
2019-05-22T00:26:09.017Z,1009.52
2019-05-22T00:27:01.307Z,1009.53
2019-05-22T00:27:27.472Z,1009.57
2019-05-22T00:28:19.813Z,1009.58
2019-05-22T00:29:38.317Z,1009.56
2019-05-22T00:30:30.638Z,1009.59
2019-05-22T00:30:56.778Z,1009.53
2019-05-22T00:31:49.102Z,1009.56
2019-05-22T00:32:41.404Z,1009.6
2019-05-22T00:33:07.567Z,1009.56
2019-05-22T00:33:59.859Z,1009.59
2019-05-22T00:35:18.329Z,1009.53
2019-05-22T00:36:10.679Z,1009.56
2019-05-22T00:36:36.844Z,1009.5
2019-05-22T00:37:29.132Z,1009.49
2019-05-22T00:38:21.435Z,1009.56
2019-05-22T00:38:47.595Z,1009.55
2019-05-22T00:39:39.880Z,1009.53
2019-05-22T00:40:58.341Z,1009.53
2019-05-22T00:41:50.653Z,1009.54
2019-05-22T00:42:16.793Z,1009.53
2019-05-22T00:43:13.963Z,1009.54
2019-05-22T00:43:37.276Z,1009.53
2019-05-22T00:44:29.564Z,1009.55
2019-05-22T00:45:47.986Z,1009.54
2019-05-22T00:46:40.317Z,1009.53
2019-05-22T00:47:06.464Z,1009.56
2019-05-22T00:47:58.868Z,1009.56
2019-05-22T00:48:51.546Z,1009.57
2019-05-22T00:49:17.766Z,1009.58
2019-05-22T00:50:10.147Z,1009.54
2019-05-22T00:51:28.664Z,1009.57
2019-05-22T00:52:20.964Z,1009.56
2019-05-22T00:52:47.100Z,1009.58
2019-05-22T00:53:39.821Z,1009.6
2019-05-22T00:54:58.167Z,1009.6
2019-05-22T00:55:50.503Z,1009.62
2019-05-22T00:56:16.641Z,1009.61
2019-05-22T00:57:10.355Z,1009.61
2019-05-22T00:57:36.529Z,1009.58
2019-05-22T00:58:28.878Z,1009.63
2019-05-22T00:58:55.020Z,1009.64
2019-05-22T00:59:47.321Z,1009.62
2019-05-22T01:00:39.656Z,1009.61
2019-05-22T01:01:05.829Z,1009.64
2019-05-22T01:01:58.139Z,1009.68
2019-05-22T01:03:16.627Z,1009.67
2019-05-22T01:04:08.935Z,1009.69
2019-05-22T01:04:35.098Z,1009.7
2019-05-22T01:05:27.409Z,1009.75
2019-05-22T01:06:19.734Z,1009.73
2019-05-22T01:06:45.870Z,1009.75
2019-05-22T01:07:38.165Z,1009.75
2019-05-22T01:08:56.634Z,1009.8
2019-05-22T01:09:48.917Z,1009.85
2019-05-22T01:10:15.057Z,1009.8
2019-05-22T01:11:07.339Z,1009.87
2019-05-22T01:11:59.633Z,1009.86
2019-05-22T01:12:25.805Z,1009.85
2019-05-22T01:13:18.136Z,1009.92
2019-05-22T01:14:42.736Z,1009.91
2019-05-22T01:15:56.088Z,1009.87
2019-05-22T01:16:48.413Z,1009.91
2019-05-22T01:18:06.898Z,1009.89
2019-05-22T01:18:59.216Z,1009.9
2019-05-22T01:19:25.360Z,1009.9
2019-05-22T01:20:17.692Z,1009.84
2019-05-22T01:21:36.245Z,1009.83
2019-05-22T01:22:28.569Z,1009.87
2019-05-22T01:22:54.776Z,1009.89
2019-05-22T01:23:47.011Z,1009.85
2019-05-22T01:24:39.304Z,1009.89
2019-05-22T01:25:05.446Z,1009.86
2019-05-22T01:25:57.764Z,1009.85
2019-05-22T01:27:16.253Z,1009.83
2019-05-22T01:28:08.554Z,1009.84
2019-05-22T01:28:34.696Z,1009.85
2019-05-22T01:29:27.013Z,1009.87
2019-05-22T01:30:19.336Z,1009.82
2019-05-22T01:30:45.437Z,1009.86
2019-05-22T01:31:37.811Z,1009.84
2019-05-22T01:32:56.258Z,1009.86
2019-05-22T01:33:48.596Z,1009.89
2019-05-22T01:34:14.782Z,1009.83
2019-05-22T01:35:07.075Z,1009.88
2019-05-22T01:35:59.397Z,1009.83
2019-05-22T01:36:25.556Z,1009.79
2019-05-22T01:37:17.891Z,1009.82
2019-05-22T01:38:36.350Z,1009.85
2019-05-22T01:39:28.637Z,1009.74
2019-05-22T01:39:54.775Z,1009.8
2019-05-22T01:40:47.087Z,1009.79
2019-05-22T01:41:39.370Z,1009.79
2019-05-22T01:42:05.512Z,1009.8
2019-05-22T01:42:57.802Z,1009.81
2019-05-22T01:44:16.330Z,1009.78
2019-05-22T01:45:08.737Z,1009.81
2019-05-22T01:45:34.915Z,1009.8
2019-05-22T01:46:27.226Z,1009.82
2019-05-22T01:47:19.549Z,1009.82
2019-05-22T01:47:45.685Z,1009.85
2019-05-22T01:48:37.971Z,1009.81
2019-05-22T01:49:56.412Z,1009.84
2019-05-22T01:50:48.693Z,1009.86
2019-05-22T01:51:14.852Z,1009.85
2019-05-22T01:52:07.171Z,1009.9
2019-05-22T01:52:59.462Z,1009.86
2019-05-22T01:53:25.601Z,1009.82
2019-05-22T01:54:17.893Z,1009.87
2019-05-22T01:55:36.356Z,1009.87
2019-05-22T01:56:29.098Z,1009.92
2019-05-22T01:56:55.304Z,1009.93
2019-05-22T01:57:47.589Z,1009.93
2019-05-22T01:58:39.907Z,1009.93
2019-05-22T01:59:06.047Z,1009.96
2019-05-22T01:59:58.334Z,1009.96
2019-05-22T02:01:16.860Z,1009.89
2019-05-22T02:02:09.173Z,1009.94
2019-05-22T02:02:35.311Z,1009.93
2019-05-22T02:03:27.602Z,1009.94
2019-05-22T02:04:19.921Z,1009.96
2019-05-22T02:04:46.061Z,1009.95
2019-05-22T02:05:38.350Z,1009.93
2019-05-22T02:06:56.773Z,1009.94
2019-05-22T02:07:49.114Z,1009.98
2019-05-22T02:08:15.247Z,1009.97
2019-05-22T02:09:07.561Z,1009.96
2019-05-22T02:09:59.863Z,1009.95
2019-05-22T02:10:26.033Z,1009.98
2019-05-22T02:11:18.353Z,1009.98
2019-05-22T02:12:36.885Z,1010.01
2019-05-22T02:13:29.215Z,1010.01
2019-05-22T02:13:55.353Z,1009.97
2019-05-22T02:14:47.644Z,1010.02
2019-05-22T02:16:06.138Z,1010.03
2019-05-22T02:16:59.463Z,1010.07
2019-05-22T02:17:25.599Z,1010.02
2019-05-22T02:18:17.894Z,1010.12
2019-05-22T02:19:36.315Z,1010.1
2019-05-22T02:20:28.683Z,1010.11
2019-05-22T02:20:54.821Z,1010.12
2019-05-22T02:21:47.123Z,1010.1
2019-05-22T02:22:39.441Z,1010.12
2019-05-22T02:23:05.585Z,1010.13
2019-05-22T02:23:57.904Z,1010.14
2019-05-22T02:25:16.371Z,1010.13
2019-05-22T02:26:08.719Z,1010.09
2019-05-22T02:26:34.878Z,1010.13
2019-05-22T02:27:27.216Z,1010.13
2019-05-22T02:28:19.501Z,1010.14
2019-05-22T02:28:45.671Z,1010.12
2019-05-22T02:29:37.974Z,1010.08
2019-05-22T02:30:56.512Z,1010.1
2019-05-22T02:31:48.826Z,1010.07
2019-05-22T02:32:14.980Z,1010.07
2019-05-22T02:33:07.301Z,1010.14
2019-05-22T02:33:59.618Z,1010.11
2019-05-22T02:34:25.765Z,1010.1
2019-05-22T02:35:18.161Z,1010.11
2019-05-22T02:36:36.672Z,1010.12
2019-05-22T02:37:29.066Z,1010.14
2019-05-22T02:37:55.242Z,1010.14
2019-05-22T02:38:47.607Z,1010.1
2019-05-22T02:40:06.101Z,1010.11
2019-05-22T02:40:58.431Z,1010.2
2019-05-22T02:42:16.948Z,1010.21
2019-05-22T02:43:09.307Z,1010.24
2019-05-22T02:43:35.475Z,1010.26
2019-05-22T02:44:27.816Z,1010.29
2019-05-22T02:45:46.314Z,1010.29
2019-05-22T02:46:38.650Z,1010.28
2019-05-22T02:47:17.593Z,1010.28
2019-05-22T02:48:26.226Z,1010.3
2019-05-22T02:49:18.538Z,1010.32
2019-05-22T02:49:44.696Z,1010.26
2019-05-22T02:50:37.015Z,1010.26
2019-05-22T02:51:29.365Z,1010.25
2019-05-22T02:51:55.528Z,1010.26
2019-05-22T02:52:47.895Z,1010.27
2019-05-22T02:54:06.322Z,1010.27
2019-05-22T02:54:58.628Z,1010.28
2019-05-22T02:55:24.798Z,1010.24
2019-05-22T02:56:17.119Z,1010.25
2019-05-22T02:57:09.497Z,1010.3
2019-05-22T02:57:35.666Z,1010.29
2019-05-22T02:58:28.030Z,1010.28
2019-05-22T02:59:46.494Z,1010.3
2019-05-22T03:00:38.852Z,1010.22
2019-05-22T03:01:05.079Z,1010.28
2019-05-22T03:01:57.378Z,1010.32
2019-05-22T03:02:49.669Z,1010.29
2019-05-22T03:03:15.805Z,1010.31
2019-05-22T03:04:08.152Z,1010.33
2019-05-22T03:05:26.625Z,1010.32
2019-05-22T03:06:18.953Z,1010.34
2019-05-22T03:06:45.123Z,1010.38
2019-05-22T03:07:37.456Z,1010.33
2019-05-22T03:08:29.775Z,1010.45
2019-05-22T03:08:55.941Z,1010.41
2019-05-22T03:09:48.252Z,1010.42
2019-05-22T03:11:06.738Z,1010.49
2019-05-22T03:11:59.033Z,1010.45
2019-05-22T03:12:25.208Z,1010.41
2019-05-22T03:13:17.578Z,1010.44
2019-05-22T03:14:09.891Z,1010.45
2019-05-22T03:14:36.035Z,1010.5
2019-05-22T03:15:28.377Z,1010.52
2019-05-22T03:16:46.847Z,1010.44
2019-05-22T03:17:39.172Z,1010.49
2019-05-22T03:18:05.310Z,1010.47
2019-05-22T03:19:08.152Z,1010.47
2019-05-22T03:19:25.221Z,1010.55
2019-05-22T03:20:17.536Z,1010.52
2019-05-22T03:21:09.884Z,1010.56
2019-05-22T03:21:36.044Z,1010.53
2019-05-22T03:22:28.540Z,1010.55
2019-05-22T03:22:54.721Z,1010.58
2019-05-22T03:23:47.090Z,1010.55
2019-05-22T03:24:39.397Z,1010.56
2019-05-22T03:25:05.534Z,1010.55
2019-05-22T03:25:57.879Z,1010.54
2019-05-22T03:27:16.332Z,1010.57
2019-05-22T03:28:08.689Z,1010.53
2019-05-22T03:28:34.856Z,1010.54
2019-05-22T03:29:27.201Z,1010.53
2019-05-22T03:30:19.557Z,1010.55
2019-05-22T03:30:45.741Z,1010.55
2019-05-22T03:31:38.353Z,1010.54
2019-05-22T03:32:57.829Z,1010.55
2019-05-22T03:34:16.585Z,1010.57
2019-05-22T03:35:08.897Z,1010.57
2019-05-22T03:35:35.096Z,1010.58
2019-05-22T03:36:27.403Z,1010.64
2019-05-22T03:37:19.701Z,1010.61
2019-05-22T03:37:45.840Z,1010.55
2019-05-22T03:38:38.233Z,1010.64
2019-05-22T03:39:56.687Z,1010.58
2019-05-22T03:40:48.990Z,1010.62
2019-05-22T03:41:15.129Z,1010.62
2019-05-22T03:42:07.426Z,1010.62
2019-05-22T03:42:59.747Z,1010.58
2019-05-22T03:43:25.878Z,1010.55
2019-05-22T03:44:18.223Z,1010.59
2019-05-22T03:45:36.669Z,1010.62
2019-05-22T03:46:28.946Z,1010.62
2019-05-22T03:46:59.139Z,1010.63
2019-05-22T03:47:47.459Z,1010.65
2019-05-22T03:48:39.798Z,1010.64
2019-05-22T03:49:05.953Z,1010.65
2019-05-22T03:50:26.369Z,1010.64
2019-05-22T03:51:18.743Z,1010.66
2019-05-22T03:51:44.934Z,1010.65
2019-05-22T03:52:37.304Z,1010.66
2019-05-22T03:53:29.629Z,1010.65
2019-05-22T03:53:55.753Z,1010.66
2019-05-22T03:54:48.120Z,1010.64
2019-05-22T03:56:06.641Z,1010.62
2019-05-22T03:56:58.962Z,1010.65
2019-05-22T03:57:25.126Z,1010.65
2019-05-22T03:58:17.451Z,1010.64
2019-05-22T03:59:09.748Z,1010.67
2019-05-22T03:59:35.920Z,1010.68
2019-05-22T04:00:28.209Z,1010.68
2019-05-22T04:01:46.796Z,1010.73
2019-05-22T04:02:39.108Z,1010.78
2019-05-22T04:03:05.253Z,1010.77
2019-05-22T04:03:57.597Z,1010.75
2019-05-22T04:04:49.876Z,1010.76
2019-05-22T04:05:16.052Z,1010.79
2019-05-22T04:06:08.360Z,1010.77
2019-05-22T04:07:26.850Z,1010.76
2019-05-22T04:08:19.175Z,1010.78
2019-05-22T04:08:45.352Z,1010.74
2019-05-22T04:09:37.680Z,1010.77
2019-05-22T04:10:56.176Z,1010.77
2019-05-22T04:11:48.478Z,1010.76
2019-05-22T04:13:07.003Z,1010.83
2019-05-22T04:13:59.321Z,1010.83
2019-05-22T04:14:25.481Z,1010.85
2019-05-22T04:15:17.819Z,1010.82
2019-05-22T04:16:36.273Z,1010.9
2019-05-22T04:17:28.640Z,1010.87
2019-05-22T04:17:54.822Z,1010.88
2019-05-22T04:18:47.146Z,1010.9
2019-05-22T04:20:07.600Z,1010.95
2019-05-22T04:21:26.144Z,1010.94
2019-05-22T04:22:18.437Z,1010.94
2019-05-22T04:23:36.902Z,1010.97
2019-05-22T04:24:29.244Z,1011.01
2019-05-22T04:24:55.408Z,1010.96
2019-05-22T04:25:47.728Z,1010.98
2019-05-22T04:27:06.197Z,1010.99
2019-05-22T04:27:58.537Z,1010.97
2019-05-22T04:28:24.685Z,1011.01
2019-05-22T04:29:17.090Z,1011.04
2019-05-22T04:30:09.447Z,1010.98
2019-05-22T04:30:35.591Z,1010.96
2019-05-22T04:31:28.931Z,1011.05
2019-05-22T04:31:55.154Z,1011.07
2019-05-22T04:32:47.561Z,1011.01
2019-05-22T04:33:39.911Z,1011.03
2019-05-22T04:34:06.057Z,1011.03
2019-05-22T04:34:58.340Z,1011.06
2019-05-22T04:36:17.783Z,1011.07
2019-05-22T04:37:36.264Z,1011.06
2019-05-22T04:38:28.552Z,1011.04
2019-05-22T04:38:54.722Z,1011.08
2019-05-22T04:39:47.023Z,1011.09
2019-05-22T04:40:39.347Z,1011.09
2019-05-22T04:41:05.536Z,1011.09
2019-05-22T04:41:57.870Z,1011.09
2019-05-22T04:43:20.210Z,1011.14
2019-05-22T04:44:09.779Z,1011.09
2019-05-22T04:44:35.982Z,1011.15
2019-05-22T04:45:28.367Z,1011.12
2019-05-22T04:46:46.789Z,1011.13
2019-05-22T04:47:39.082Z,1011.13
2019-05-22T04:48:05.255Z,1011.16
2019-05-22T04:48:57.537Z,1011.12
2019-05-22T04:50:06.178Z,1011.14
2019-05-22T04:50:18.714Z,1011.13
2019-05-22T04:50:44.876Z,1011.11
2019-05-22T04:51:37.198Z,1011.12
2019-05-22T04:52:29.568Z,1011.13
2019-05-22T04:52:55.740Z,1011.15
2019-05-22T04:53:48.055Z,1011.15
2019-05-22T04:55:06.554Z,1011.19
2019-05-22T04:55:58.893Z,1011.18
2019-05-22T04:56:25.063Z,1011.18
2019-05-22T04:57:17.412Z,1011.2
2019-05-22T04:58:09.762Z,1011.18
2019-05-22T04:58:35.898Z,1011.22
2019-05-22T04:59:28.214Z,1011.2
2019-05-22T05:00:46.706Z,1011.21
2019-05-22T05:01:39.067Z,1011.13
2019-05-22T05:02:05.229Z,1011.19
2019-05-22T05:02:57.577Z,1011.17
2019-05-22T05:03:49.876Z,1011.19
2019-05-22T05:04:16.016Z,1011.21
2019-05-22T05:05:08.299Z,1011.2
2019-05-22T05:06:26.828Z,1011.2
2019-05-22T05:07:19.151Z,1011.22
2019-05-22T05:07:45.306Z,1011.25
2019-05-22T05:08:37.603Z,1011.24
2019-05-22T05:09:56.063Z,1011.26
2019-05-22T05:10:48.378Z,1011.26
2019-05-22T05:12:06.838Z,1011.31
2019-05-22T05:12:59.163Z,1011.3
2019-05-22T05:13:25.326Z,1011.3
2019-05-22T05:14:17.646Z,1011.32
2019-05-22T05:15:37.293Z,1011.42
2019-05-22T05:16:29.422Z,1011.4
2019-05-22T05:16:55.553Z,1011.39
2019-05-22T05:17:47.844Z,1011.4
2019-05-22T05:19:06.382Z,1011.4
2019-05-22T05:19:58.686Z,1011.37
2019-05-22T05:20:26.806Z,1011.39
2019-05-22T05:21:19.098Z,1011.39
2019-05-22T05:21:45.234Z,1011.37
2019-05-22T05:22:37.556Z,1011.36
2019-05-22T05:23:29.961Z,1011.43
2019-05-22T05:23:56.082Z,1011.34
2019-05-22T05:24:48.370Z,1011.35
2019-05-22T05:26:06.857Z,1011.36
2019-05-22T05:26:59.207Z,1011.43
2019-05-22T05:27:25.373Z,1011.4
2019-05-22T05:28:17.661Z,1011.45
2019-05-22T05:29:36.187Z,1011.4
2019-05-22T05:30:28.479Z,1011.42
2019-05-22T05:31:46.953Z,1011.45
2019-05-22T05:32:39.244Z,1011.49
2019-05-22T05:33:05.417Z,1011.51
2019-05-22T05:33:57.768Z,1011.53
2019-05-22T05:35:17.011Z,1011.5
2019-05-22T05:36:09.322Z,1011.53
2019-05-22T05:36:35.467Z,1011.52
2019-05-22T05:37:27.787Z,1011.51
2019-05-22T05:38:46.259Z,1011.54
2019-05-22T05:39:38.624Z,1011.55
2019-05-22T05:40:04.794Z,1011.57
2019-05-22T05:40:57.214Z,1011.51
2019-05-22T05:41:49.497Z,1011.54
2019-05-22T05:42:15.783Z,1011.54
2019-05-22T05:43:08.254Z,1011.54
2019-05-22T05:44:26.820Z,1011.57
2019-05-22T05:45:19.218Z,1011.55
2019-05-22T05:45:45.389Z,1011.56
2019-05-22T05:46:37.710Z,1011.57
2019-05-22T05:47:56.173Z,1011.63
2019-05-22T05:48:50.090Z,1011.57
2019-05-22T05:49:17.622Z,1011.6
2019-05-22T05:49:44.749Z,1011.63
2019-05-22T05:50:40.401Z,1011.61
2019-05-22T05:51:07.390Z,1011.65
2019-05-22T05:52:28.451Z,1011.64
2019-05-22T05:53:47.235Z,1011.66
2019-05-22T05:55:07.115Z,1011.61
2019-05-22T05:55:59.848Z,1011.63
2019-05-22T05:56:26.142Z,1011.64
2019-05-22T05:57:18.783Z,1011.65
2019-05-22T05:57:45.166Z,1011.66
2019-05-22T05:58:37.899Z,1011.59
2019-05-22T05:59:56.828Z,1011.65
2019-05-22T06:00:49.139Z,1011.7
2019-05-22T06:01:16.629Z,1011.65
2019-05-22T06:01:44.929Z,1011.66
2019-05-22T06:02:53.917Z,1011.73
2019-05-22T06:03:07.685Z,1011.72
2019-05-22T06:04:34.438Z,1011.76
2019-05-22T06:05:19.874Z,1011.75
2019-05-22T06:05:46.016Z,1011.71
2019-05-22T06:06:38.701Z,1011.73
2019-05-22T06:07:05.834Z,1011.75
2019-05-22T06:07:58.542Z,1011.74
2019-05-22T06:08:24.685Z,1011.77
2019-05-22T06:09:16.969Z,1011.78
2019-05-22T06:10:09.312Z,1011.76
2019-05-22T06:10:35.448Z,1011.82
2019-05-22T06:11:27.799Z,1011.83
2019-05-22T06:12:46.316Z,1011.78
2019-05-22T06:13:38.683Z,1011.82
2019-05-22T06:14:04.811Z,1011.83
2019-05-22T06:14:57.142Z,1011.81
2019-05-22T06:15:49.504Z,1011.86
2019-05-22T06:16:15.691Z,1011.88
2019-05-22T06:17:07.996Z,1011.89
2019-05-22T06:18:26.473Z,1011.88
2019-05-22T06:19:18.898Z,1011.84
2019-05-22T06:19:45.037Z,1011.81
2019-05-22T06:20:37.364Z,1011.84
2019-05-22T06:21:05.488Z,1011.85
2019-05-22T06:21:57.857Z,1011.8
2019-05-22T06:23:16.428Z,1011.85
2019-05-22T06:24:08.726Z,1011.88
2019-05-22T06:24:34.925Z,1011.89
2019-05-22T06:25:27.392Z,1011.93
2019-05-22T06:26:19.828Z,1011.88
2019-05-22T06:26:45.990Z,1011.91
2019-05-22T06:27:38.289Z,1011.92
2019-05-22T06:28:56.771Z,1011.94
2019-05-22T06:29:49.361Z,1011.94
2019-05-22T06:30:15.525Z,1011.94
2019-05-22T06:31:07.838Z,1011.89
2019-05-22T06:32:26.306Z,1011.92
2019-05-22T06:33:18.658Z,1011.94
2019-05-22T06:33:44.826Z,1011.86
2019-05-22T06:34:37.220Z,1011.93
2019-05-22T06:35:29.542Z,1011.92
2019-05-22T06:35:55.694Z,1011.94
2019-05-22T06:36:47.985Z,1011.92
2019-05-22T06:38:06.447Z,1011.82
2019-05-22T06:38:58.736Z,1011.98
2019-05-22T06:39:24.900Z,1011.94
2019-05-22T06:40:17.186Z,1011.97
2019-05-22T06:41:09.507Z,1011.96
2019-05-22T06:41:35.650Z,1011.97
2019-05-22T06:42:27.982Z,1011.97
2019-05-22T06:43:46.494Z,1011.89
2019-05-22T06:44:38.822Z,1011.99
2019-05-22T06:45:05.342Z,1011.97
2019-05-22T06:45:57.407Z,1012.06
2019-05-22T06:46:49.745Z,1012.09
2019-05-22T06:47:15.898Z,1012.05
2019-05-22T06:48:08.185Z,1012.09
2019-05-22T06:49:26.635Z,1012.01
2019-05-22T06:50:18.987Z,1012.13
2019-05-22T06:50:48.670Z,1012.12
2019-05-22T06:52:06.789Z,1012.12
2019-05-22T06:53:09.245Z,1012.08
2019-05-22T06:53:27.237Z,1012.11
2019-05-22T06:54:19.731Z,1012.11
2019-05-22T06:54:45.909Z,1012.12
2019-05-22T06:55:38.251Z,1012.15
2019-05-22T06:56:56.802Z,1012.17
2019-05-22T06:57:49.177Z,1012.17
2019-05-22T06:58:15.370Z,1012.18
2019-05-22T06:59:07.727Z,1012.18
2019-05-22T07:00:28.173Z,1012.26
2019-05-22T07:01:46.887Z,1012.26
2019-05-22T07:02:39.282Z,1012.24
2019-05-22T07:03:05.427Z,1012.25
2019-05-22T07:03:57.767Z,1012.27
2019-05-22T07:05:16.293Z,1012.25
2019-05-22T07:06:08.559Z,1012.19
2019-05-22T07:06:34.731Z,1012.27
2019-05-22T07:07:27.015Z,1012.3
2019-05-22T07:08:19.478Z,1012.32
2019-05-22T07:08:45.534Z,1012.31
2019-05-22T07:09:37.829Z,1012.34
2019-05-22T07:10:56.313Z,1012.3
2019-05-22T07:11:48.609Z,1012.33
2019-05-22T07:12:14.778Z,1012.37
2019-05-22T07:13:08.095Z,1012.39
2019-05-22T07:14:26.685Z,1012.39
2019-05-22T07:15:18.978Z,1012.37
2019-05-22T07:15:45.127Z,1012.42
2019-05-22T07:16:37.439Z,1012.41
2019-05-22T07:17:29.810Z,1012.46
2019-05-22T07:17:55.983Z,1012.41
2019-05-22T07:18:48.550Z,1012.47
2019-05-22T07:19:14.706Z,1012.45
2019-05-22T07:20:07.198Z,1012.52
2019-05-22T07:21:33.542Z,1012.52
2019-05-22T07:22:19.415Z,1012.51
2019-05-22T07:22:45.694Z,1012.5
2019-05-22T07:23:38.001Z,1012.53
2019-05-22T07:24:56.495Z,1012.59
2019-05-22T07:25:48.844Z,1012.55
2019-05-22T07:26:14.979Z,1012.55
2019-05-22T07:27:07.319Z,1012.55
2019-05-22T07:27:59.691Z,1012.59
2019-05-22T07:28:25.923Z,1012.6
2019-05-22T07:29:18.285Z,1012.59
2019-05-22T07:30:36.874Z,1012.58
2019-05-22T07:31:29.197Z,1012.58
2019-05-22T07:31:55.393Z,1012.57
2019-05-22T07:32:48.749Z,1012.6
2019-05-22T07:33:14.948Z,1012.56
2019-05-22T07:34:07.352Z,1012.59
2019-05-22T07:34:59.717Z,1012.54
2019-05-22T07:35:42.352Z,1012.55
2019-05-22T07:36:47.377Z,1012.59
2019-05-22T07:37:39.690Z,1012.57
2019-05-22T07:38:05.825Z,1012.6
2019-05-22T07:38:58.149Z,1012.58
2019-05-22T07:40:16.587Z,1012.57
2019-05-22T07:41:09.895Z,1012.6
2019-05-22T07:41:36.055Z,1012.56
2019-05-22T07:42:28.414Z,1012.57
2019-05-22T07:43:47.518Z,1012.55
2019-05-22T07:44:39.921Z,1012.55
2019-05-22T07:45:06.060Z,1012.55
2019-05-22T07:45:58.427Z,1012.51
2019-05-22T07:47:17.015Z,1012.51
2019-05-22T07:48:09.950Z,1012.47
2019-05-22T07:48:36.253Z,1012.53
2019-05-22T07:49:28.614Z,1012.48
2019-05-22T07:49:54.747Z,1012.48
2019-05-22T07:50:48.658Z,1012.53
2019-05-22T07:52:06.788Z,1012.55
2019-05-22T07:52:59.139Z,1012.59
2019-05-22T07:53:25.274Z,1012.59
2019-05-22T07:54:17.654Z,1012.6
2019-05-22T07:55:36.115Z,1012.59
2019-05-22T07:56:28.436Z,1012.63
2019-05-22T07:57:46.939Z,1012.64
2019-05-22T07:58:39.322Z,1012.64
2019-05-22T07:59:06.431Z,1012.66
2019-05-22T07:59:58.723Z,1012.66
2019-05-22T08:00:24.902Z,1012.63
2019-05-22T08:01:17.274Z,1012.64
2019-05-22T08:02:09.553Z,1012.63
2019-05-22T08:02:35.757Z,1012.63
2019-05-22T08:03:28.146Z,1012.61
2019-05-22T08:04:46.624Z,1012.64
2019-05-22T08:05:38.963Z,1012.64
2019-05-22T08:06:05.126Z,1012.62
2019-05-22T08:06:57.472Z,1012.68
2019-05-22T08:07:49.789Z,1012.63
2019-05-22T08:08:18.680Z,1012.65
2019-05-22T08:09:09.294Z,1012.63
2019-05-22T08:09:35.434Z,1012.64
2019-05-22T08:10:27.753Z,1012.68
2019-05-22T08:11:46.229Z,1012.66
2019-05-22T08:12:38.529Z,1012.7
2019-05-22T08:13:04.715Z,1012.69
2019-05-22T08:13:57.048Z,1012.72
2019-05-22T08:14:49.412Z,1012.76
2019-05-22T08:15:15.556Z,1012.78
2019-05-22T08:16:07.933Z,1012.78
2019-05-22T08:17:26.496Z,1012.79
2019-05-22T08:18:18.776Z,1012.78
2019-05-22T08:18:44.998Z,1012.78
2019-05-22T08:19:37.310Z,1012.77
2019-05-22T08:20:29.622Z,1012.74
2019-05-22T08:20:55.768Z,1012.75
2019-05-22T08:21:48.134Z,1012.77
2019-05-22T08:22:16.261Z,1012.8
2019-05-22T08:23:08.572Z,1012.82
2019-05-22T08:23:34.745Z,1012.85
2019-05-22T08:24:27.055Z,1012.78
2019-05-22T08:25:19.349Z,1012.81
2019-05-22T08:25:45.521Z,1012.86
2019-05-22T08:26:53.112Z,1012.77
2019-05-22T08:27:05.011Z,1012.77
2019-05-22T08:27:57.405Z,1012.76
2019-05-22T08:28:49.797Z,1012.76
2019-05-22T08:29:15.887Z,1012.78
2019-05-22T08:30:08.243Z,1012.8
2019-05-22T08:31:26.805Z,1012.75
2019-05-22T08:32:19.148Z,1012.78
2019-05-22T08:32:45.296Z,1012.78
2019-05-22T08:33:37.648Z,1012.76
2019-05-22T08:34:56.096Z,1012.76
2019-05-22T08:35:48.462Z,1012.77
2019-05-22T08:36:14.700Z,1012.79
2019-05-22T08:37:07.066Z,1012.76
2019-05-22T08:37:59.380Z,1012.76
2019-05-22T08:38:25.548Z,1012.74
2019-05-22T08:39:17.845Z,1012.79
2019-05-22T08:40:36.377Z,1012.75
2019-05-22T08:41:28.732Z,1012.71
2019-05-22T08:41:54.933Z,1012.71
2019-05-22T08:42:47.214Z,1012.74
2019-05-22T08:43:56.385Z,1012.76
2019-05-22T08:44:17.664Z,1012.76
2019-05-22T08:44:35.871Z,1012.78
2019-05-22T08:45:28.193Z,1012.77
2019-05-22T08:46:46.814Z,1012.75
2019-05-22T08:47:39.165Z,1012.79
2019-05-22T08:48:05.301Z,1012.78
2019-05-22T08:48:58.621Z,1012.77
2019-05-22T08:49:24.786Z,1012.79
2019-05-22T08:50:17.102Z,1012.81
2019-05-22T08:51:09.461Z,1012.83
2019-05-22T08:51:35.561Z,1012.84
2019-05-22T08:52:29.907Z,1012.86
2019-05-22T08:52:56.064Z,1012.84
2019-05-22T08:53:49.380Z,1012.87
2019-05-22T08:54:16.547Z,1012.86
2019-05-22T08:55:08.861Z,1012.87
2019-05-22T08:55:35.030Z,1012.87
2019-05-22T08:56:27.493Z,1012.88
2019-05-22T08:57:19.828Z,1012.91
2019-05-22T08:57:45.979Z,1012.89
2019-05-22T08:58:38.321Z,1012.87
2019-05-22T08:59:57.766Z,1012.89
2019-05-22T09:01:16.274Z,1012.87
2019-05-22T09:02:08.624Z,1012.93
2019-05-22T09:02:34.767Z,1012.91
2019-05-22T09:03:27.059Z,1012.92
2019-05-22T09:04:19.379Z,1012.91
2019-05-22T09:04:45.538Z,1012.91
2019-05-22T09:05:38.842Z,1012.94
2019-05-22T09:06:04.983Z,1012.92
2019-05-22T09:06:57.301Z,1012.9
2019-05-22T09:07:49.665Z,1012.92
2019-05-22T09:08:15.829Z,1012.93
2019-05-22T09:09:08.109Z,1013.02
2019-05-22T09:10:26.668Z,1013.05
2019-05-22T09:11:19.039Z,1013.1
2019-05-22T09:11:45.209Z,1013.12
2019-05-22T09:12:37.526Z,1013.05
2019-05-22T09:13:29.854Z,1013.03
2019-05-22T09:13:56.059Z,1013.07
2019-05-22T09:14:48.400Z,1013
2019-05-22T09:16:06.920Z,1013.03
2019-05-22T09:16:59.285Z,1013.06
2019-05-22T09:17:25.423Z,1013.1
2019-05-22T09:18:17.744Z,1013.12
2019-05-22T09:19:36.259Z,1013.07
2019-05-22T09:20:28.617Z,1013.13
2019-05-22T09:20:55.250Z,1013.16
2019-05-22T09:21:48.537Z,1013.15
2019-05-22T09:22:14.726Z,1013.09
2019-05-22T09:23:08.991Z,1013.15
2019-05-22T09:23:35.159Z,1013.15
2019-05-22T09:24:27.599Z,1013.15
2019-05-22T09:25:19.852Z,1013.1
2019-05-22T09:25:45.982Z,1013.11
2019-05-22T09:26:38.313Z,1013.12
2019-05-22T09:27:05.484Z,1013.1
2019-05-22T09:27:57.800Z,1013.09
2019-05-22T09:29:16.288Z,1013.11
2019-05-22T09:30:08.628Z,1013.12
2019-05-22T09:30:34.789Z,1013.09
2019-05-22T09:31:27.100Z,1013.12
2019-05-22T09:32:19.439Z,1013.11
2019-05-22T09:32:47.486Z,1013.11
2019-05-22T09:33:37.908Z,1013.16
2019-05-22T09:34:56.417Z,1013.17
2019-05-22T09:35:48.743Z,1013.15
2019-05-22T09:36:14.900Z,1013.19
2019-05-22T09:37:07.180Z,1013.21
2019-05-22T09:37:59.475Z,1013.26
2019-05-22T09:38:25.654Z,1013.32
2019-05-22T09:39:17.971Z,1013.29
2019-05-22T09:40:36.437Z,1013.25
2019-05-22T09:41:28.781Z,1013.21
2019-05-22T09:41:54.951Z,1013.27
2019-05-22T09:42:47.327Z,1013.22
2019-05-22T09:43:39.684Z,1013.28
2019-05-22T09:44:05.819Z,1013.36
2019-05-22T09:44:58.108Z,1013.38
2019-05-22T09:46:16.578Z,1013.45
2019-05-22T09:47:08.952Z,1013.46
2019-05-22T09:47:35.116Z,1013.48
2019-05-22T09:48:27.476Z,1013.47
2019-05-22T09:49:23.189Z,1013.51
2019-05-22T09:49:46.967Z,1013.52
2019-05-22T09:50:39.282Z,1013.49
2019-05-22T09:51:05.439Z,1013.51
2019-05-22T09:51:57.753Z,1013.49
2019-05-22T09:53:18.191Z,1013.46
2019-05-22T09:54:36.623Z,1013.51
2019-05-22T09:55:28.921Z,1013.53
2019-05-22T09:55:55.053Z,1013.47
2019-05-22T09:56:47.398Z,1013.49